Map

Track Data

SID SEASON NUMBER BASIN SUBBASIN NAME ISO_TIME NATURE LAT LON WMO_WIND WMO_PRES WMO_AGENCY TRACK_TYPE DIST2LAND LANDFALL IFLAG USA_AGENCY USA_ATCF_ID USA_LAT USA_LON USA_RECORD USA_STATUS USA_WIND USA_PRES USA_SSHS USA_R34_NE USA_R34_SE USA_R34_SW USA_R34_NW USA_R50_NE USA_R50_SE USA_R50_SW USA_R50_NW USA_R64_NE USA_R64_SE USA_R64_SW USA_R64_NW USA_POCI USA_ROCI USA_RMW USA_EYE TOKYO_LAT TOKYO_LON TOKYO_GRADE TOKYO_WIND TOKYO_PRES TOKYO_R50_DIR TOKYO_R50_LONG TOKYO_R50_SHORT TOKYO_R30_DIR TOKYO_R30_LONG TOKYO_R30_SHORT TOKYO_LAND CMA_LAT CMA_LON CMA_CAT CMA_WIND CMA_PRES HKO_LAT HKO_LON HKO_CAT HKO_WIND HKO_PRES NEWDELHI_LAT NEWDELHI_LON NEWDELHI_GRADE NEWDELHI_WIND NEWDELHI_PRES NEWDELHI_CI NEWDELHI_DP NEWDELHI_POCI REUNION_LAT REUNION_LON REUNION_TYPE REUNION_WIND REUNION_PRES REUNION_TNUM REUNION_CI REUNION_RMW REUNION_R34_NE REUNION_R34_SE REUNION_R34_SW REUNION_R34_NW REUNION_R50_NE REUNION_R50_SE REUNION_R50_SW REUNION_R50_NW REUNION_R64_NE REUNION_R64_SE REUNION_R64_SW REUNION_R64_NW BOM_LAT BOM_LON BOM_TYPE BOM_WIND BOM_PRES BOM_TNUM BOM_CI BOM_RMW BOM_R34_NE BOM_R34_SE BOM_R34_SW BOM_R34_NW BOM_R50_NE BOM_R50_SE BOM_R50_SW BOM_R50_NW BOM_R64_NE BOM_R64_SE BOM_R64_SW BOM_R64_NW BOM_ROCI BOM_POCI BOM_EYE BOM_POS_METHOD BOM_PRES_METHOD NADI_LAT NADI_LON NADI_CAT NADI_WIND NADI_PRES WELLINGTON_LAT WELLINGTON_LON WELLINGTON_WIND WELLINGTON_PRES DS824_LAT DS824_LON DS824_STAGE DS824_WIND DS824_PRES TD9636_LAT TD9636_LON TD9636_STAGE TD9636_WIND TD9636_PRES TD9635_LAT TD9635_LON TD9635_WIND TD9635_PRES TD9635_ROCI NEUMANN_LAT NEUMANN_LON NEUMANN_CLASS NEUMANN_WIND NEUMANN_PRES MLC_LAT MLC_LON MLC_CLASS MLC_WIND MLC_PRES USA_GUST BOM_GUST BOM_GUST_PER REUNION_GUST REUNION_GUST_PER USA_SEAHGT USA_SEARAD_NE USA_SEARAD_SE USA_SEARAD_SW USA_SEARAD_NW STORM_SPEED STORM_DIR
1939280N16148 1939 69 WP MM NOT_NAMED 1939-10-06 21:00:00 NR 15.9000 147.900 main 2017 2016 __________O___ -1 15.9000 147.900 4 12 273
1939280N16148 1939 69 WP MM NOT_NAMED 1939-10-07 00:00:00 NR 15.9265 147.288 main 2016 2016 __________P___ -1 15.9265 147.288 4 12 270
1939280N16148 1939 69 WP MM NOT_NAMED 1939-10-07 03:00:00 NR 15.9019 146.651 main 2016 2005 __________P___ -1 15.9019 146.651 4 13 263
1939280N16148 1939 69 WP MM NOT_NAMED 1939-10-07 06:00:00 NR 15.7764 145.963 main 2006 1976 __________P___ -1 15.7764 145.963 4 15 254
1939280N16148 1939 69 WP MM NOT_NAMED 1939-10-07 09:00:00 NR 15.5000 145.200 main 1977 1940 __________O___ -1 15.5000 145.200 4 17 245
1939280N16148 1939 69 WP MM NOT_NAMED 1939-10-07 12:00:00 NR 15.0504 144.355 main 1942 1890 __________P___ -1 15.0504 144.355 4 19 239
1939280N16148 1939 69 WP MM NOT_NAMED 1939-10-07 15:00:00 NR 14.5195 143.490 main 1890 1827 __________P___ -1 14.5195 143.490 4 19 238
1939280N16148 1939 69 WP MM NOT_NAMED 1939-10-07 18:00:00 NR 14.0285 142.680 main 1816 1758 __________P___ -1 14.0285 142.680 4 17 240
1939280N16148 1939 69 WP MM NOT_NAMED 1939-10-07 21:00:00 NR 13.7000 142.000 main 1758 1731 __________O___ -1 13.7000 142.000 4 11 249
1939280N16148 1939 69 WP MM NOT_NAMED 1939-10-08 00:00:00 NR 13.6400 141.616 main 1731 1721 __________P___ -1 13.6400 141.616 4 6 276
1939280N16148 1939 69 WP MM NOT_NAMED 1939-10-08 03:00:00 NR 13.7616 141.350 main 1712 1695 __________P___ -1 13.7616 141.350 4 6 307
1939280N16148 1939 69 WP MM NOT_NAMED 1939-10-08 06:00:00 NR 14.0275 141.083 main 1695 1661 __________P___ -1 14.0275 141.083 4 9 315
1939280N16148 1939 69 WP MM NOT_NAMED 1939-10-08 09:00:00 NR 14.4000 140.700 main 1661 1595 __________O___ -1 14.4000 140.700 4 13 306
1939280N16148 1939 69 WP MM NOT_NAMED 1939-10-08 12:00:00 NR 14.8252 139.970 main 1595 1520 __________P___ -1 14.8252 139.970 4 18 301
1939280N16148 1939 69 WP MM NOT_NAMED 1939-10-08 15:00:00 NR 15.3361 139.119 main 1509 1438 __________P___ -1 15.3361 139.119 4 20 303
1939280N16148 1939 69 WP MM NOT_NAMED 1939-10-08 18:00:00 NR 15.8785 138.258 main 1441 1375 __________P___ -1 15.8785 138.258 4 19 304
1939280N16148 1939 69 WP MM NOT_NAMED 1939-10-08 21:00:00 NR 16.4000 137.500 main 1375 1346 __________O___ -1 16.4000 137.500 4 15 308
1939280N16148 1939 69 WP MM NOT_NAMED 1939-10-09 00:00:00 NR 16.7978 137.044 main 1340 1323 __________P___ -1 16.7978 137.044 4 11 315
1939280N16148 1939 69 WP MM NOT_NAMED 1939-10-09 03:00:00 NR 17.1741 136.700 main 1328 1313 __________P___ -1 17.1741 136.700 4 10 320
1939280N16148 1939 69 WP MM NOT_NAMED 1939-10-09 06:00:00 NR 17.5636 136.381 main 1317 1300 __________P___ -1 17.5636 136.381 4 11 321
1939280N16148 1939 69 WP MM NOT_NAMED 1939-10-09 09:00:00 NR 18.0000 136.000 main 1300 1274 __________O___ -1 18.0000 136.000 4 14 315
1939280N16148 1939 69 WP MM NOT_NAMED 1939-10-09 12:00:00 NR 18.5591 135.351 main 1280 1242 __________P___ -1 18.5591 135.351 4 17 312
1939280N16148 1939 69 WP MM NOT_NAMED 1939-10-09 15:00:00 NR 19.1604 134.637 main 1238 1210 __________P___ -1 19.1604 134.637 4 18 312
1939280N16148 1939 69 WP MM NOT_NAMED 1939-10-09 18:00:00 NR 19.7562 133.954 main 1216 1181 __________P___ -1 19.7562 133.954 4 16 314
1939280N16148 1939 69 WP MM NOT_NAMED 1939-10-09 21:00:00 NR 20.3000 133.400 main 1183 1158 __________O___ -1 20.3000 133.400 4 12 317
1939280N16148 1939 69 WP MM NOT_NAMED 1939-10-10 00:00:00 NR 20.6215 133.091 main 1158 1142 __________P___ -1 20.6215 133.091 4 8 324
1939280N16148 1939 69 WP MM NOT_NAMED 1939-10-10 03:00:00 NR 20.9061 132.924 main 1144 1114 __________P___ -1 20.9061 132.924 4 7 340
1939280N16148 1939 69 WP MM NOT_NAMED 1939-10-10 06:00:00 NR 21.2627 132.845 main 1103 1048 __________P___ -1 21.2627 132.845 4 9 353
1939280N16148 1939 69 WP MM NOT_NAMED 1939-10-10 09:00:00 NR 21.8000 132.800 main 1048 947 __________O___ -1 21.8000 132.800 4 15 353
1939280N16148 1939 69 WP MM NOT_NAMED 1939-10-10 12:00:00 NR 22.7128 132.661 main 947 836 __________P___ -1 22.7128 132.661 4 20 353
1939280N16148 1939 69 WP MM NOT_NAMED 1939-10-10 15:00:00 NR 23.8026 132.548 main 823 703 __________P___ -1 23.8026 132.548 4 22 356
1939280N16148 1939 69 WP MM NOT_NAMED 1939-10-10 18:00:00 NR 24.9412 132.486 main 703 595 __________P___ -1 24.9412 132.486 4 22 359
1939280N16148 1939 69 WP MM NOT_NAMED 1939-10-10 21:00:00 NR 26.0000 132.500 main 585 500 __________O___ -1 26.0000 132.500 4 19 2
1939280N16148 1939 69 WP MM NOT_NAMED 1939-10-11 00:00:00 NR 26.8152 132.541 main 500 431 __________P___ -1 26.8152 132.541 4 15 6
1939280N16148 1939 69 WP MM NOT_NAMED 1939-10-11 03:00:00 NR 27.5323 132.671 main 436 387 __________P___ -1 27.5323 132.671 4 14 14
1939280N16148 1939 69 WP MM NOT_NAMED 1939-10-11 06:00:00 NR 28.1833 132.915 main 377 342 __________P___ -1 28.1833 132.915 4 14 24
1939280N16148 1939 69 WP MM NOT_NAMED 1939-10-11 09:00:00 NR 28.8000 133.300 main 342 313 __________O___ -1 28.8000 133.300 4 15 32
1939280N16148 1939 69 WP MM NOT_NAMED 1939-10-11 12:00:00 NR 29.4744 133.841 main 312 312 __________P___ -1 29.4744 133.841 4 17 39
1939280N16148 1939 69 WP MM NOT_NAMED 1939-10-11 15:00:00 NR 30.1137 134.523 main 322 297 __________P___ -1 30.1137 134.523 4 18 46
1939280N16148 1939 69 WP MM NOT_NAMED 1939-10-11 18:00:00 NR 30.6960 135.294 main 297 246 __________P___ -1 30.6960 135.294 4 17 51
1939280N16148 1939 69 WP MM NOT_NAMED 1939-10-11 21:00:00 NR 31.2000 136.100 main 246 217 __________O___ -1 31.2000 136.100 4 15 54
1939280N16148 1939 69 WP MM NOT_NAMED 1939-10-12 00:00:00 NR 31.5956 136.724 main 217 210 __________P___ -1 31.5956 136.724 4 13 57
1939280N16148 1939 69 WP MM NOT_NAMED 1939-10-12 03:00:00 NR 31.9186 137.385 main 224 222 __________P___ -1 31.9186 137.385 4 14 64
1939280N16148 1939 69 WP MM NOT_NAMED 1939-10-12 06:00:00 NR 32.2079 138.178 main 257 235 __________P___ -1 32.2079 138.178 4 16 69
1939280N16148 1939 69 WP MM NOT_NAMED 1939-10-12 09:00:00 NR 32.5000 139.200 main 237 229 __________O___ -1 32.5000 139.200 4 22 72
1939280N16148 1939 69 WP MM NOT_NAMED 1939-10-12 12:00:00 NR 32.8742 140.655 main 234 234 __________P___ -1 32.8742 140.655 4 27 74
1939280N16148 1939 69 WP MM NOT_NAMED 1939-10-12 15:00:00 NR 33.2359 142.335 main 283 280 __________P___ -1 33.2359 142.335 4 29 77
1939280N16148 1939 69 WP MM NOT_NAMED 1939-10-12 18:00:00 NR 33.5524 144.074 main 374 374 __________P___ -1 33.5524 144.074 4 29 79
1939280N16148 1939 69 WP MM NOT_NAMED 1939-10-12 21:00:00 NR 33.8000 145.700 main 486 486 __________O___ -1 33.8000 145.700 4 25 81
1939280N16148 1939 69 WP MM NOT_NAMED 1939-10-13 00:00:00 NR 33.9699 147.078 main 595 595 __________P___ -1 33.9699 147.078 4 21 82
1939280N16148 1939 69 WP MM NOT_NAMED 1939-10-13 03:00:00 NR 34.0801 148.240 main 687 687 __________P___ -1 34.0801 148.240 4 18 84
1939280N16148 1939 69 WP MM NOT_NAMED 1939-10-13 06:00:00 NR 34.1510 149.256 main 781 781 __________P___ -1 34.1510 149.256 4 16 86
1939280N16148 1939 69 WP MM NOT_NAMED 1939-10-13 09:00:00 NR 34.2000 150.200 main 861 __________O___ -1 34.2000 150.200 4 16 86

Digital Typhoon Data and Search

About IBTrACS Database

This database is a web-friendly format of International Best Track Archive for Climate Stewardship (IBTrACS), a global best track data archive curated by NOAA dating back to 1842.

Updated: 2021-12-01